sensor_id;sensor_type;location;lat;lon;timestamp;P1;durP1;ratioP1;P2;durP2;ratioP2
79410;SDS011;69635;50.964;6.948;2023-08-17T00:02:14;10.13;;;4.85;;
79410;SDS011;69635;50.964;6.948;2023-08-17T00:04:40;9.80;;;5.47;;
79410;SDS011;69635;50.964;6.948;2023-08-17T00:07:05;11.30;;;5.57;;
79410;SDS011;69635;50.964;6.948;2023-08-17T00:09:31;8.48;;;5.35;;
79410;SDS011;69635;50.964;6.948;2023-08-17T00:11:56;5.93;;;4.25;;
79410;SDS011;69635;50.964;6.948;2023-08-17T00:14:22;8.33;;;5.70;;
79410;SDS011;69635;50.964;6.948;2023-08-17T00:16:49;7.75;;;5.43;;
79410;SDS011;69635;50.964;6.948;2023-08-17T00:19:14;10.35;;;5.28;;
79410;SDS011;69635;50.964;6.948;2023-08-17T00:21:39;8.77;;;5.00;;
79410;SDS011;69635;50.964;6.948;2023-08-17T00:24:04;7.50;;;5.07;;
79410;SDS011;69635;50.964;6.948;2023-08-17T00:26:30;3.80;;;3.03;;
79410;SDS011;69635;50.964;6.948;2023-08-17T00:28:55;10.50;;;5.03;;
79410;SDS011;69635;50.964;6.948;2023-08-17T00:31:20;8.40;;;4.27;;
79410;SDS011;69635;50.964;6.948;2023-08-17T00:33:45;7.87;;;4.30;;
79410;SDS011;69635;50.964;6.948;2023-08-17T00:36:10;8.63;;;5.17;;
79410;SDS011;69635;50.964;6.948;2023-08-17T00:38:36;10.00;;;5.13;;
79410;SDS011;69635;50.964;6.948;2023-08-17T00:41:01;11.07;;;6.40;;
79410;SDS011;69635;50.964;6.948;2023-08-17T00:43:26;6.40;;;4.27;;
79410;SDS011;69635;50.964;6.948;2023-08-17T00:45:52;13.38;;;6.10;;
79410;SDS011;69635;50.964;6.948;2023-08-17T00:48:17;9.23;;;5.83;;
79410;SDS011;69635;50.964;6.948;2023-08-17T00:50:42;10.90;;;5.77;;
79410;SDS011;69635;50.964;6.948;2023-08-17T00:53:08;9.10;;;5.70;;
79410;SDS011;69635;50.964;6.948;2023-08-17T00:55:38;9.25;;;5.75;;
79410;SDS011;69635;50.964;6.948;2023-08-17T00:58:03;13.13;;;6.43;;
79410;SDS011;69635;50.964;6.948;2023-08-17T01:00:29;10.70;;;5.77;;
79410;SDS011;69635;50.964;6.948;2023-08-17T01:02:54;10.23;;;5.70;;
79410;SDS011;69635;50.964;6.948;2023-08-17T01:05:20;9.75;;;5.60;;
79410;SDS011;69635;50.964;6.948;2023-08-17T01:07:45;10.65;;;6.00;;
79410;SDS011;69635;50.964;6.948;2023-08-17T01:10:11;9.63;;;5.23;;
79410;SDS011;69635;50.964;6.948;2023-08-17T01:12:38;7.67;;;4.70;;
79410;SDS011;69635;50.964;6.948;2023-08-17T01:15:11;8.43;;;5.13;;
79410;SDS011;69635;50.964;6.948;2023-08-17T01:17:58;8.07;;;5.30;;
79410;SDS011;69635;50.964;6.948;2023-08-17T01:20:25;8.68;;;5.13;;
79410;SDS011;69635;50.964;6.948;2023-08-17T01:22:52;9.93;;;5.50;;
79410;SDS011;69635;50.964;6.948;2023-08-17T01:25:18;9.57;;;5.75;;
79410;SDS011;69635;50.964;6.948;2023-08-17T01:27:44;10.88;;;5.53;;
79410;SDS011;69635;50.964;6.948;2023-08-17T01:30:13;9.60;;;5.80;;
79410;SDS011;69635;50.964;6.948;2023-08-17T01:32:59;11.30;;;6.47;;
79410;SDS011;69635;50.964;6.948;2023-08-17T01:37:51;7.37;;;5.43;;
79410;SDS011;69635;50.964;6.948;2023-08-17T01:40:18;7.30;;;5.32;;
79410;SDS011;69635;50.964;6.948;2023-08-17T01:42:43;7.05;;;5.63;;
79410;SDS011;69635;50.964;6.948;2023-08-17T01:45:08;9.75;;;5.63;;
79410;SDS011;69635;50.964;6.948;2023-08-17T01:47:34;9.18;;;5.55;;
79410;SDS011;69635;50.964;6.948;2023-08-17T01:50:00;9.60;;;5.20;;
79410;SDS011;69635;50.964;6.948;2023-08-17T01:52:26;7.85;;;5.53;;
79410;SDS011;69635;50.964;6.948;2023-08-17T01:54:52;7.03;;;5.18;;
79410;SDS011;69635;50.964;6.948;2023-08-17T01:57:17;7.40;;;4.87;;
79410;SDS011;69635;50.964;6.948;2023-08-17T01:59:43;7.30;;;4.77;;
79410;SDS011;69635;50.964;6.948;2023-08-17T02:02:08;6.03;;;4.68;;
79410;SDS011;69635;50.964;6.948;2023-08-17T02:04:34;7.07;;;5.20;;
79410;SDS011;69635;50.964;6.948;2023-08-17T02:06:59;7.60;;;5.05;;
79410;SDS011;69635;50.964;6.948;2023-08-17T02:09:25;9.37;;;4.53;;
79410;SDS011;69635;50.964;6.948;2023-08-17T02:11:50;6.83;;;4.50;;
79410;SDS011;69635;50.964;6.948;2023-08-17T02:14:17;6.63;;;4.53;;
79410;SDS011;69635;50.964;6.948;2023-08-17T02:16:42;8.40;;;5.07;;
79410;SDS011;69635;50.964;6.948;2023-08-17T02:19:07;6.50;;;4.90;;
79410;SDS011;69635;50.964;6.948;2023-08-17T02:21:32;6.90;;;5.07;;
79410;SDS011;69635;50.964;6.948;2023-08-17T02:23:58;5.80;;;4.20;;
79410;SDS011;69635;50.964;6.948;2023-08-17T02:26:23;8.93;;;4.40;;
79410;SDS011;69635;50.964;6.948;2023-08-17T02:28:48;6.03;;;4.30;;
79410;SDS011;69635;50.964;6.948;2023-08-17T02:31:13;7.93;;;4.50;;
79410;SDS011;69635;50.964;6.948;2023-08-17T02:33:39;7.17;;;4.77;;
79410;SDS011;69635;50.964;6.948;2023-08-17T02:36:04;6.43;;;4.23;;
79410;SDS011;69635;50.964;6.948;2023-08-17T02:38:29;8.23;;;4.40;;
79410;SDS011;69635;50.964;6.948;2023-08-17T02:40:54;7.77;;;4.53;;
79410;SDS011;69635;50.964;6.948;2023-08-17T02:43:20;5.83;;;4.40;;
79410;SDS011;69635;50.964;6.948;2023-08-17T02:45:45;5.97;;;4.10;;
79410;SDS011;69635;50.964;6.948;2023-08-17T02:48:10;5.53;;;4.07;;
79410;SDS011;69635;50.964;6.948;2023-08-17T02:50:35;7.23;;;4.50;;
79410;SDS011;69635;50.964;6.948;2023-08-17T02:53:01;4.75;;;4.03;;
79410;SDS011;69635;50.964;6.948;2023-08-17T02:55:27;7.25;;;4.28;;
79410;SDS011;69635;50.964;6.948;2023-08-17T02:57:52;5.40;;;3.90;;
79410;SDS011;69635;50.964;6.948;2023-08-17T03:00:17;6.70;;;4.47;;
79410;SDS011;69635;50.964;6.948;2023-08-17T03:02:43;5.87;;;4.43;;
79410;SDS011;69635;50.964;6.948;2023-08-17T03:05:08;9.20;;;4.63;;
79410;SDS011;69635;50.964;6.948;2023-08-17T03:07:33;6.97;;;4.30;;
79410;SDS011;69635;50.964;6.948;2023-08-17T03:09:58;6.70;;;4.33;;
79410;SDS011;69635;50.964;6.948;2023-08-17T03:12:23;6.10;;;4.27;;
79410;SDS011;69635;50.964;6.948;2023-08-17T03:14:49;6.33;;;4.10;;
79410;SDS011;69635;50.964;6.948;2023-08-17T03:17:14;7.60;;;4.47;;
79410;SDS011;69635;50.964;6.948;2023-08-17T03:19:39;7.23;;;4.63;;
79410;SDS011;69635;50.964;6.948;2023-08-17T03:22:04;6.40;;;4.50;;
79410;SDS011;69635;50.964;6.948;2023-08-17T03:24:30;8.13;;;4.27;;
79410;SDS011;69635;50.964;6.948;2023-08-17T03:26:55;6.43;;;4.17;;
79410;SDS011;69635;50.964;6.948;2023-08-17T03:29:20;5.63;;;4.30;;
79410;SDS011;69635;50.964;6.948;2023-08-17T03:31:45;6.03;;;4.43;;
79410;SDS011;69635;50.964;6.948;2023-08-17T03:34:11;10.00;;;4.50;;
79410;SDS011;69635;50.964;6.948;2023-08-17T03:36:36;7.28;;;4.30;;
79410;SDS011;69635;50.964;6.948;2023-08-17T03:39:01;5.40;;;3.90;;
79410;SDS011;69635;50.964;6.948;2023-08-17T03:41:27;6.70;;;4.13;;
79410;SDS011;69635;50.964;6.948;2023-08-17T03:43:52;5.97;;;4.43;;
79410;SDS011;69635;50.964;6.948;2023-08-17T03:46:17;5.33;;;4.27;;
79410;SDS011;69635;50.964;6.948;2023-08-17T03:48:42;8.83;;;4.63;;
79410;SDS011;69635;50.964;6.948;2023-08-17T03:51:07;8.20;;;5.10;;
79410;SDS011;69635;50.964;6.948;2023-08-17T03:53:33;8.67;;;4.60;;
79410;SDS011;69635;50.964;6.948;2023-08-17T03:55:58;6.95;;;4.97;;
79410;SDS011;69635;50.964;6.948;2023-08-17T03:58:23;6.07;;;4.80;;
79410;SDS011;69635;50.964;6.948;2023-08-17T04:00:51;7.85;;;5.38;;
79410;SDS011;69635;50.964;6.948;2023-08-17T04:03:17;6.68;;;5.10;;
79410;SDS011;69635;50.964;6.948;2023-08-17T04:05:42;9.52;;;5.88;;
79410;SDS011;69635;50.964;6.948;2023-08-17T04:08:08;7.72;;;5.50;;
79410;SDS011;69635;50.964;6.948;2023-08-17T04:10:33;10.70;;;5.97;;
79410;SDS011;69635;50.964;6.948;2023-08-17T04:12:58;7.95;;;4.78;;
79410;SDS011;69635;50.964;6.948;2023-08-17T04:15:24;8.65;;;5.88;;
79410;SDS011;69635;50.964;6.948;2023-08-17T04:17:49;9.67;;;6.03;;
79410;SDS011;69635;50.964;6.948;2023-08-17T04:20:14;9.75;;;6.43;;
79410;SDS011;69635;50.964;6.948;2023-08-17T04:22:40;7.90;;;5.80;;
79410;SDS011;69635;50.964;6.948;2023-08-17T04:25:05;8.07;;;5.87;;
79410;SDS011;69635;50.964;6.948;2023-08-17T04:27:30;7.72;;;4.82;;
79410;SDS011;69635;50.964;6.948;2023-08-17T04:29:56;7.30;;;4.93;;
79410;SDS011;69635;50.964;6.948;2023-08-17T04:32:22;9.68;;;5.93;;
79410;SDS011;69635;50.964;6.948;2023-08-17T04:34:47;9.23;;;6.13;;
79410;SDS011;69635;50.964;6.948;2023-08-17T04:37:13;8.30;;;5.72;;
79410;SDS011;69635;50.964;6.948;2023-08-17T04:39:38;8.40;;;5.75;;
79410;SDS011;69635;50.964;6.948;2023-08-17T04:42:04;8.67;;;5.87;;
79410;SDS011;69635;50.964;6.948;2023-08-17T04:44:36;8.70;;;6.10;;
79410;SDS011;69635;50.964;6.948;2023-08-17T04:47:05;9.52;;;5.28;;
79410;SDS011;69635;50.964;6.948;2023-08-17T04:49:32;6.95;;;5.55;;
79410;SDS011;69635;50.964;6.948;2023-08-17T04:52:03;7.90;;;4.88;;
79410;SDS011;69635;50.964;6.948;2023-08-17T04:54:42;9.05;;;5.45;;
79410;SDS011;69635;50.964;6.948;2023-08-17T04:57:07;7.13;;;4.93;;
79410;SDS011;69635;50.964;6.948;2023-08-17T04:59:33;7.45;;;5.13;;
79410;SDS011;69635;50.964;6.948;2023-08-17T05:02:02;8.48;;;5.93;;
79410;SDS011;69635;50.964;6.948;2023-08-17T05:04:36;9.57;;;5.35;;
79410;SDS011;69635;50.964;6.948;2023-08-17T05:07:09;9.98;;;6.15;;
79410;SDS011;69635;50.964;6.948;2023-08-17T05:31:26;7.57;;;5.05;;
79410;SDS011;69635;50.964;6.948;2023-08-17T05:57:52;7.53;;;4.72;;
79410;SDS011;69635;50.964;6.948;2023-08-17T06:00:18;10.68;;;5.78;;
79410;SDS011;69635;50.964;6.948;2023-08-17T06:02:43;9.55;;;5.55;;
79410;SDS011;69635;50.964;6.948;2023-08-17T06:05:17;7.05;;;4.90;;
79410;SDS011;69635;50.964;6.948;2023-08-17T06:18:51;10.02;;;5.90;;
79410;SDS011;69635;50.964;6.948;2023-08-17T06:21:45;9.60;;;5.80;;
79410;SDS011;69635;50.964;6.948;2023-08-17T06:27:04;13.40;;;6.50;;
79410;SDS011;69635;50.964;6.948;2023-08-17T06:29:53;8.07;;;5.22;;
79410;SDS011;69635;50.964;6.948;2023-08-17T06:32:21;8.80;;;5.87;;
79410;SDS011;69635;50.964;6.948;2023-08-17T06:35:23;7.35;;;4.75;;
79410;SDS011;69635;50.964;6.948;2023-08-17T06:37:48;8.60;;;5.78;;
79410;SDS011;69635;50.964;6.948;2023-08-17T06:40:13;8.65;;;5.05;;
79410;SDS011;69635;50.964;6.948;2023-08-17T06:42:39;7.78;;;5.40;;
79410;SDS011;69635;50.964;6.948;2023-08-17T06:47:55;7.53;;;5.18;;
79410;SDS011;69635;50.964;6.948;2023-08-17T06:50:20;8.63;;;5.72;;
79410;SDS011;69635;50.964;6.948;2023-08-17T06:52:49;10.55;;;5.35;;
79410;SDS011;69635;50.964;6.948;2023-08-17T06:55:16;8.02;;;5.07;;
79410;SDS011;69635;50.964;6.948;2023-08-17T06:57:44;9.32;;;6.00;;
79410;SDS011;69635;50.964;6.948;2023-08-17T07:08:49;7.15;;;4.82;;
79410;SDS011;69635;50.964;6.948;2023-08-17T07:11:17;9.63;;;5.55;;
79410;SDS011;69635;50.964;6.948;2023-08-17T07:13:55;8.50;;;5.30;;
79410;SDS011;69635;50.964;6.948;2023-08-17T07:16:35;11.13;;;5.53;;
79410;SDS011;69635;50.964;6.948;2023-08-17T07:19:04;12.77;;;6.45;;
79410;SDS011;69635;50.964;6.948;2023-08-17T07:21:44;10.45;;;6.10;;
79410;SDS011;69635;50.964;6.948;2023-08-17T07:24:13;9.50;;;5.75;;
79410;SDS011;69635;50.964;6.948;2023-08-17T07:26:43;8.45;;;5.55;;
79410;SDS011;69635;50.964;6.948;2023-08-17T07:29:17;10.15;;;6.00;;
79410;SDS011;69635;50.964;6.948;2023-08-17T07:32:07;10.70;;;5.97;;
79410;SDS011;69635;50.964;6.948;2023-08-17T07:38:09;10.85;;;5.72;;
79410;SDS011;69635;50.964;6.948;2023-08-17T07:40:34;8.40;;;5.33;;
79410;SDS011;69635;50.964;6.948;2023-08-17T07:43:00;11.23;;;6.28;;
79410;SDS011;69635;50.964;6.948;2023-08-17T07:45:26;9.48;;;5.63;;
79410;SDS011;69635;50.964;6.948;2023-08-17T07:47:58;11.73;;;6.28;;
79410;SDS011;69635;50.964;6.948;2023-08-17T07:50:23;9.43;;;5.85;;
79410;SDS011;69635;50.964;6.948;2023-08-17T07:52:48;14.40;;;6.73;;
79410;SDS011;69635;50.964;6.948;2023-08-17T07:58:31;10.13;;;6.57;;
79410;SDS011;69635;50.964;6.948;2023-08-17T08:24:58;13.25;;;7.10;;
79410;SDS011;69635;50.964;6.948;2023-08-17T08:27:36;15.05;;;8.52;;
79410;SDS011;69635;50.964;6.948;2023-08-17T08:30:01;18.58;;;7.07;;
79410;SDS011;69635;50.964;6.948;2023-08-17T08:32:29;13.83;;;7.37;;
79410;SDS011;69635;50.964;6.948;2023-08-17T08:34:55;17.38;;;7.63;;
79410;SDS011;69635;50.964;6.948;2023-08-17T08:37:25;15.65;;;7.38;;
79410;SDS011;69635;50.964;6.948;2023-08-17T08:39:54;14.55;;;8.93;;
79410;SDS011;69635;50.964;6.948;2023-08-17T08:50:49;21.98;;;8.93;;
79410;SDS011;69635;50.964;6.948;2023-08-17T09:06:49;17.65;;;9.07;;
79410;SDS011;69635;50.964;6.948;2023-08-17T14:24:13;9.60;;;6.32;;
79410;SDS011;69635;50.964;6.948;2023-08-17T14:26:39;11.00;;;6.18;;
79410;SDS011;69635;50.964;6.948;2023-08-17T14:29:04;9.73;;;6.57;;
79410;SDS011;69635;50.964;6.948;2023-08-17T14:31:30;9.13;;;6.37;;
79410;SDS011;69635;50.964;6.948;2023-08-17T14:33:55;10.25;;;6.38;;
79410;SDS011;69635;50.964;6.948;2023-08-17T14:36:20;10.07;;;6.38;;
79410;SDS011;69635;50.964;6.948;2023-08-17T14:38:46;10.30;;;6.70;;
79410;SDS011;69635;50.964;6.948;2023-08-17T14:41:13;7.95;;;6.30;;
79410;SDS011;69635;50.964;6.948;2023-08-17T14:43:39;9.10;;;5.35;;
79410;SDS011;69635;50.964;6.948;2023-08-17T14:46:04;10.68;;;6.75;;
79410;SDS011;69635;50.964;6.948;2023-08-17T14:48:30;7.82;;;5.28;;
79410;SDS011;69635;50.964;6.948;2023-08-17T14:50:55;10.38;;;5.20;;
79410;SDS011;69635;50.964;6.948;2023-08-17T14:53:21;11.57;;;5.60;;
79410;SDS011;69635;50.964;6.948;2023-08-17T14:55:46;10.48;;;5.80;;
79410;SDS011;69635;50.964;6.948;2023-08-17T14:58:11;5.28;;;4.00;;
79410;SDS011;69635;50.964;6.948;2023-08-17T15:00:37;7.90;;;5.43;;
79410;SDS011;69635;50.964;6.948;2023-08-17T15:03:04;7.40;;;5.10;;
79410;SDS011;69635;50.964;6.948;2023-08-17T15:05:30;7.20;;;4.47;;
79410;SDS011;69635;50.964;6.948;2023-08-17T15:08:01;10.30;;;6.10;;
79410;SDS011;69635;50.964;6.948;2023-08-17T15:10:26;6.93;;;4.97;;
79410;SDS011;69635;50.964;6.948;2023-08-17T15:12:54;7.90;;;5.20;;
79410;SDS011;69635;50.964;6.948;2023-08-17T15:15:19;6.82;;;4.70;;
79410;SDS011;69635;50.964;6.948;2023-08-17T15:17:48;7.63;;;4.93;;
79410;SDS011;69635;50.964;6.948;2023-08-17T15:20:15;6.20;;;4.97;;
79410;SDS011;69635;50.964;6.948;2023-08-17T15:22:41;8.13;;;5.43;;
79410;SDS011;69635;50.964;6.948;2023-08-17T15:25:06;6.38;;;4.47;;
79410;SDS011;69635;50.964;6.948;2023-08-17T15:27:32;9.10;;;5.47;;
79410;SDS011;69635;50.964;6.948;2023-08-17T15:30:06;8.45;;;5.25;;
79410;SDS011;69635;50.964;6.948;2023-08-17T15:32:31;7.70;;;4.75;;
79410;SDS011;69635;50.964;6.948;2023-08-17T15:34:57;5.03;;;4.10;;
79410;SDS011;69635;50.964;6.948;2023-08-17T15:37:25;8.00;;;4.93;;
79410;SDS011;69635;50.964;6.948;2023-08-17T15:39:53;8.63;;;4.72;;
79410;SDS011;69635;50.964;6.948;2023-08-17T15:42:19;6.32;;;4.80;;
79410;SDS011;69635;50.964;6.948;2023-08-17T15:44:44;5.93;;;4.57;;
79410;SDS011;69635;50.964;6.948;2023-08-17T15:47:10;6.15;;;4.47;;
79410;SDS011;69635;50.964;6.948;2023-08-17T15:49:38;7.13;;;4.82;;
79410;SDS011;69635;50.964;6.948;2023-08-17T15:52:03;7.70;;;5.07;;
79410;SDS011;69635;50.964;6.948;2023-08-17T15:54:29;6.55;;;4.13;;
79410;SDS011;69635;50.964;6.948;2023-08-17T15:56:54;7.37;;;4.27;;
79410;SDS011;69635;50.964;6.948;2023-08-17T15:59:20;7.18;;;4.80;;
79410;SDS011;69635;50.964;6.948;2023-08-17T16:01:48;6.50;;;4.80;;
79410;SDS011;69635;50.964;6.948;2023-08-17T16:04:13;5.65;;;4.05;;
79410;SDS011;69635;50.964;6.948;2023-08-17T16:06:39;6.93;;;3.78;;
79410;SDS011;69635;50.964;6.948;2023-08-17T16:09:08;7.15;;;4.85;;
79410;SDS011;69635;50.964;6.948;2023-08-17T16:11:34;5.53;;;3.95;;
79410;SDS011;69635;50.964;6.948;2023-08-17T16:13:59;5.13;;;3.92;;
79410;SDS011;69635;50.964;6.948;2023-08-17T16:16:25;7.82;;;4.07;;
79410;SDS011;69635;50.964;6.948;2023-08-17T16:18:50;5.80;;;4.88;;
79410;SDS011;69635;50.964;6.948;2023-08-17T16:21:15;5.90;;;4.00;;
79410;SDS011;69635;50.964;6.948;2023-08-17T16:23:44;5.30;;;4.22;;
79410;SDS011;69635;50.964;6.948;2023-08-17T16:26:09;5.82;;;3.97;;
79410;SDS011;69635;50.964;6.948;2023-08-17T16:28:38;5.22;;;4.00;;
79410;SDS011;69635;50.964;6.948;2023-08-17T16:33:28;6.38;;;3.75;;
79410;SDS011;69635;50.964;6.948;2023-08-17T16:35:55;7.32;;;4.38;;
79410;SDS011;69635;50.964;6.948;2023-08-17T16:38:20;5.22;;;3.55;;
79410;SDS011;69635;50.964;6.948;2023-08-17T16:40:52;4.22;;;3.17;;
79410;SDS011;69635;50.964;6.948;2023-08-17T16:43:19;8.63;;;4.38;;
79410;SDS011;69635;50.964;6.948;2023-08-17T16:45:46;8.60;;;5.75;;
79410;SDS011;69635;50.964;6.948;2023-08-17T16:48:11;10.70;;;7.03;;
79410;SDS011;69635;50.964;6.948;2023-08-17T16:50:37;6.30;;;4.20;;
79410;SDS011;69635;50.964;6.948;2023-08-17T16:53:02;3.80;;;3.25;;
79410;SDS011;69635;50.964;6.948;2023-08-17T16:55:27;10.30;;;5.95;;
79410;SDS011;69635;50.964;6.948;2023-08-17T16:57:53;14.85;;;8.60;;
79410;SDS011;69635;50.964;6.948;2023-08-17T17:00:18;7.82;;;5.63;;
79410;SDS011;69635;50.964;6.948;2023-08-17T17:02:44;5.35;;;3.92;;
79410;SDS011;69635;50.964;6.948;2023-08-17T17:05:09;5.07;;;3.40;;
79410;SDS011;69635;50.964;6.948;2023-08-17T17:07:34;6.25;;;4.30;;
79410;SDS011;69635;50.964;6.948;2023-08-17T17:10:00;6.38;;;4.45;;
79410;SDS011;69635;50.964;6.948;2023-08-17T17:12:25;4.05;;;2.88;;
79410;SDS011;69635;50.964;6.948;2023-08-17T17:14:50;5.50;;;3.90;;
79410;SDS011;69635;50.964;6.948;2023-08-17T17:17:16;8.10;;;4.32;;
79410;SDS011;69635;50.964;6.948;2023-08-17T17:19:42;7.43;;;4.55;;
79410;SDS011;69635;50.964;6.948;2023-08-17T17:22:07;6.83;;;4.80;;
79410;SDS011;69635;50.964;6.948;2023-08-17T17:24:33;6.68;;;4.88;;
79410;SDS011;69635;50.964;6.948;2023-08-17T17:26:59;5.30;;;4.13;;
79410;SDS011;69635;50.964;6.948;2023-08-17T17:29:25;8.93;;;4.53;;
79410;SDS011;69635;50.964;6.948;2023-08-17T17:31:50;6.40;;;4.20;;
79410;SDS011;69635;50.964;6.948;2023-08-17T17:34:16;6.35;;;4.35;;
79410;SDS011;69635;50.964;6.948;2023-08-17T17:36:42;6.47;;;4.30;;
79410;SDS011;69635;50.964;6.948;2023-08-17T17:39:07;4.97;;;4.13;;
79410;SDS011;69635;50.964;6.948;2023-08-17T17:41:32;5.10;;;4.00;;
79410;SDS011;69635;50.964;6.948;2023-08-17T17:44:06;6.40;;;4.25;;
79410;SDS011;69635;50.964;6.948;2023-08-17T17:46:32;10.20;;;4.80;;
79410;SDS011;69635;50.964;6.948;2023-08-17T17:48:58;7.50;;;4.13;;
79410;SDS011;69635;50.964;6.948;2023-08-17T17:51:32;8.23;;;4.32;;
79410;SDS011;69635;50.964;6.948;2023-08-17T17:53:57;6.23;;;4.40;;
79410;SDS011;69635;50.964;6.948;2023-08-17T17:56:39;8.37;;;4.83;;
79410;SDS011;69635;50.964;6.948;2023-08-17T17:59:05;7.38;;;4.68;;
79410;SDS011;69635;50.964;6.948;2023-08-17T18:01:32;7.03;;;4.70;;
79410;SDS011;69635;50.964;6.948;2023-08-17T18:03:57;7.38;;;4.53;;
79410;SDS011;69635;50.964;6.948;2023-08-17T18:06:22;6.97;;;4.60;;
79410;SDS011;69635;50.964;6.948;2023-08-17T18:08:50;6.83;;;4.33;;
79410;SDS011;69635;50.964;6.948;2023-08-17T18:11:16;5.40;;;4.40;;
79410;SDS011;69635;50.964;6.948;2023-08-17T18:13:43;8.23;;;4.70;;
79410;SDS011;69635;50.964;6.948;2023-08-17T18:16:11;6.60;;;4.43;;
79410;SDS011;69635;50.964;6.948;2023-08-17T18:18:37;6.80;;;4.53;;
79410;SDS011;69635;50.964;6.948;2023-08-17T18:21:03;5.72;;;4.75;;
79410;SDS011;69635;50.964;6.948;2023-08-17T18:23:29;7.28;;;4.82;;
79410;SDS011;69635;50.964;6.948;2023-08-17T18:25:54;7.72;;;4.82;;
79410;SDS011;69635;50.964;6.948;2023-08-17T18:28:20;7.97;;;4.85;;
79410;SDS011;69635;50.964;6.948;2023-08-17T18:30:45;8.25;;;4.55;;
79410;SDS011;69635;50.964;6.948;2023-08-17T18:33:10;8.45;;;4.82;;
79410;SDS011;69635;50.964;6.948;2023-08-17T18:35:36;6.53;;;4.60;;
79410;SDS011;69635;50.964;6.948;2023-08-17T18:38:01;11.33;;;4.97;;
79410;SDS011;69635;50.964;6.948;2023-08-17T18:40:26;6.97;;;4.50;;
79410;SDS011;69635;50.964;6.948;2023-08-17T18:42:52;6.38;;;4.57;;
79410;SDS011;69635;50.964;6.948;2023-08-17T18:45:17;6.93;;;4.57;;
79410;SDS011;69635;50.964;6.948;2023-08-17T18:47:44;7.00;;;5.18;;
79410;SDS011;69635;50.964;6.948;2023-08-17T18:50:11;5.93;;;4.60;;
79410;SDS011;69635;50.964;6.948;2023-08-17T18:52:36;7.32;;;4.72;;
79410;SDS011;69635;50.964;6.948;2023-08-17T18:55:02;7.70;;;4.20;;
79410;SDS011;69635;50.964;6.948;2023-08-17T18:57:28;7.28;;;5.30;;
79410;SDS011;69635;50.964;6.948;2023-08-17T18:59:53;7.43;;;4.60;;
79410;SDS011;69635;50.964;6.948;2023-08-17T19:02:19;5.90;;;4.60;;
79410;SDS011;69635;50.964;6.948;2023-08-17T19:04:47;6.05;;;4.05;;
79410;SDS011;69635;50.964;6.948;2023-08-17T19:07:13;6.97;;;4.57;;
79410;SDS011;69635;50.964;6.948;2023-08-17T19:09:38;8.25;;;5.15;;
79410;SDS011;69635;50.964;6.948;2023-08-17T19:12:04;7.32;;;5.30;;
79410;SDS011;69635;50.964;6.948;2023-08-17T19:14:29;8.32;;;5.38;;
79410;SDS011;69635;50.964;6.948;2023-08-17T19:16:55;9.38;;;5.28;;
79410;SDS011;69635;50.964;6.948;2023-08-17T19:19:21;8.23;;;5.45;;
79410;SDS011;69635;50.964;6.948;2023-08-17T19:21:47;9.80;;;5.55;;
79410;SDS011;69635;50.964;6.948;2023-08-17T19:24:14;7.75;;;5.00;;
79410;SDS011;69635;50.964;6.948;2023-08-17T19:26:39;7.57;;;4.88;;
79410;SDS011;69635;50.964;6.948;2023-08-17T19:29:05;7.72;;;4.93;;
79410;SDS011;69635;50.964;6.948;2023-08-17T19:31:30;6.22;;;4.72;;
79410;SDS011;69635;50.964;6.948;2023-08-17T19:33:57;7.70;;;5.10;;
79410;SDS011;69635;50.964;6.948;2023-08-17T19:36:22;10.50;;;6.40;;
79410;SDS011;69635;50.964;6.948;2023-08-17T19:38:47;9.48;;;5.68;;
79410;SDS011;69635;50.964;6.948;2023-08-17T19:41:13;8.47;;;5.07;;
79410;SDS011;69635;50.964;6.948;2023-08-17T19:43:39;8.07;;;5.35;;
79410;SDS011;69635;50.964;6.948;2023-08-17T19:46:05;7.47;;;5.13;;
79410;SDS011;69635;50.964;6.948;2023-08-17T19:48:31;6.77;;;5.03;;
79410;SDS011;69635;50.964;6.948;2023-08-17T19:50:56;8.02;;;5.03;;
79410;SDS011;69635;50.964;6.948;2023-08-17T19:53:22;7.45;;;4.68;;
79410;SDS011;69635;50.964;6.948;2023-08-17T19:55:47;8.25;;;5.03;;
79410;SDS011;69635;50.964;6.948;2023-08-17T19:58:12;7.53;;;4.97;;
79410;SDS011;69635;50.964;6.948;2023-08-17T20:00:38;10.30;;;5.38;;
79410;SDS011;69635;50.964;6.948;2023-08-17T20:03:03;7.13;;;5.17;;
79410;SDS011;69635;50.964;6.948;2023-08-17T20:05:29;8.93;;;5.50;;
79410;SDS011;69635;50.964;6.948;2023-08-17T20:07:54;7.85;;;5.25;;
79410;SDS011;69635;50.964;6.948;2023-08-17T20:10:19;8.45;;;5.15;;
79410;SDS011;69635;50.964;6.948;2023-08-17T20:12:45;9.48;;;5.18;;
79410;SDS011;69635;50.964;6.948;2023-08-17T20:15:10;7.38;;;5.38;;
79410;SDS011;69635;50.964;6.948;2023-08-17T20:17:36;8.95;;;5.40;;
79410;SDS011;69635;50.964;6.948;2023-08-17T20:20:01;9.48;;;5.43;;
79410;SDS011;69635;50.964;6.948;2023-08-17T20:22:26;10.00;;;6.22;;
79410;SDS011;69635;50.964;6.948;2023-08-17T20:24:52;11.68;;;5.97;;
79410;SDS011;69635;50.964;6.948;2023-08-17T20:27:19;9.90;;;6.43;;
79410;SDS011;69635;50.964;6.948;2023-08-17T20:29:45;9.13;;;5.75;;
79410;SDS011;69635;50.964;6.948;2023-08-17T20:32:10;9.10;;;5.60;;
79410;SDS011;69635;50.964;6.948;2023-08-17T20:34:36;9.80;;;5.60;;
79410;SDS011;69635;50.964;6.948;2023-08-17T20:37:01;8.40;;;5.85;;
79410;SDS011;69635;50.964;6.948;2023-08-17T20:39:26;8.40;;;5.50;;
79410;SDS011;69635;50.964;6.948;2023-08-17T20:41:52;8.80;;;5.93;;
79410;SDS011;69635;50.964;6.948;2023-08-17T20:44:18;8.48;;;5.93;;
79410;SDS011;69635;50.964;6.948;2023-08-17T20:46:45;11.02;;;5.93;;
79410;SDS011;69635;50.964;6.948;2023-08-17T20:49:10;10.50;;;5.97;;
79410;SDS011;69635;50.964;6.948;2023-08-17T20:51:35;9.67;;;6.43;;
79410;SDS011;69635;50.964;6.948;2023-08-17T20:54:01;8.70;;;5.45;;
79410;SDS011;69635;50.964;6.948;2023-08-17T20:56:35;10.82;;;6.75;;
79410;SDS011;69635;50.964;6.948;2023-08-17T20:59:00;8.30;;;5.70;;
79410;SDS011;69635;50.964;6.948;2023-08-17T21:01:26;9.70;;;5.77;;
79410;SDS011;69635;50.964;6.948;2023-08-17T21:03:51;11.87;;;6.50;;
79410;SDS011;69635;50.964;6.948;2023-08-17T21:06:16;11.83;;;6.80;;
79410;SDS011;69635;50.964;6.948;2023-08-17T21:08:42;12.35;;;6.68;;
79410;SDS011;69635;50.964;6.948;2023-08-17T21:11:08;10.25;;;6.22;;
79410;SDS011;69635;50.964;6.948;2023-08-17T21:13:35;16.87;;;7.27;;
79410;SDS011;69635;50.964;6.948;2023-08-17T21:16:10;12.50;;;6.63;;
79410;SDS011;69635;50.964;6.948;2023-08-17T21:18:36;10.90;;;6.00;;
79410;SDS011;69635;50.964;6.948;2023-08-17T21:21:01;11.13;;;6.60;;
79410;SDS011;69635;50.964;6.948;2023-08-17T21:23:27;14.18;;;7.53;;
79410;SDS011;69635;50.964;6.948;2023-08-17T21:25:57;11.80;;;7.10;;
79410;SDS011;69635;50.964;6.948;2023-08-17T21:28:38;11.60;;;7.13;;
79410;SDS011;69635;50.964;6.948;2023-08-17T21:31:04;12.83;;;7.00;;
79410;SDS011;69635;50.964;6.948;2023-08-17T21:33:40;13.65;;;6.70;;
79410;SDS011;69635;50.964;6.948;2023-08-17T21:40:15;16.80;;;8.35;;
79410;SDS011;69635;50.964;6.948;2023-08-17T22:38:34;16.58;;;8.80;;
79410;SDS011;69635;50.964;6.948;2023-08-17T23:30:49;16.85;;;10.07;;
79410;SDS011;69635;50.964;6.948;2023-08-17T23:37:17;18.38;;;8.90;;
79410;SDS011;69635;50.964;6.948;2023-08-17T23:43:11;18.48;;;10.05;;
79410;SDS011;69635;50.964;6.948;2023-08-17T23:54:17;21.20;;;9.70;;
79410;SDS011;69635;50.964;6.948;2023-08-17T23:57:13;19.08;;;10.07;;
